createdAt,value
2023-06-07T00:00:19.107Z,957.6469
2023-06-07T00:01:20.943Z,957.6431
2023-06-07T00:02:36.869Z,957.6462
2023-06-07T00:03:25.670Z,957.6492
2023-06-07T00:04:26.464Z,957.6600
2023-06-07T00:05:28.321Z,957.6708
2023-06-07T00:06:30.136Z,957.6700
2023-06-07T00:07:31.976Z,957.6623
2023-06-07T00:08:33.840Z,957.6500
2023-06-07T00:09:35.654Z,957.6377
2023-06-07T00:10:37.492Z,957.6292
2023-06-07T00:11:39.316Z,957.6246
2023-06-07T00:12:41.150Z,957.6277
2023-06-07T00:13:43.020Z,957.6323
2023-06-07T00:14:44.849Z,957.6277
2023-06-07T00:15:46.718Z,957.6431
2023-06-07T00:16:48.616Z,957.6423
2023-06-07T00:17:50.487Z,957.6270
2023-06-07T00:18:52.209Z,957.6230
2023-06-07T00:19:54.055Z,957.6238
2023-06-07T00:20:55.933Z,957.6123
2023-06-07T00:21:57.726Z,957.6000
2023-06-07T00:22:59.566Z,957.5939
2023-06-07T00:24:01.412Z,957.5854
2023-06-07T00:25:03.278Z,957.5800
2023-06-07T00:26:05.091Z,957.5762
2023-06-07T00:27:06.939Z,957.5739
2023-06-07T00:28:08.779Z,957.5785
2023-06-07T00:29:10.608Z,957.5692
2023-06-07T00:30:12.458Z,957.5638
2023-06-07T00:31:14.330Z,957.5569
2023-06-07T00:32:16.152Z,957.5446
2023-06-07T00:33:17.970Z,957.5461
2023-06-07T00:34:19.801Z,957.5469
2023-06-07T00:35:21.654Z,957.5392
2023-06-07T00:36:23.545Z,957.5354
2023-06-07T00:37:25.371Z,957.5346
2023-06-07T00:38:27.163Z,957.5415
2023-06-07T00:39:29.002Z,957.5461
2023-06-07T00:40:30.855Z,957.5377
2023-06-07T00:41:32.704Z,957.5339
2023-06-07T00:42:34.535Z,957.5270
2023-06-07T00:43:36.358Z,957.5170
2023-06-07T00:44:38.225Z,957.5131
2023-06-07T00:45:40.031Z,957.5108
2023-06-07T00:46:41.929Z,957.5139
2023-06-07T00:47:43.804Z,957.5200
2023-06-07T00:48:45.671Z,957.5077
2023-06-07T00:49:47.407Z,957.5115
2023-06-07T00:50:49.254Z,957.5092
2023-06-07T00:51:51.174Z,957.5023
2023-06-07T00:52:52.904Z,957.5015
2023-06-07T00:53:54.735Z,957.4977
2023-06-07T00:54:56.600Z,957.4962
2023-06-07T00:55:58.432Z,957.4861
2023-06-07T00:57:00.290Z,957.4892
2023-06-07T00:58:02.097Z,957.4808
2023-06-07T00:59:03.935Z,957.4815
2023-06-07T01:00:06.033Z,957.4830
2023-06-07T01:01:07.639Z,957.4746
2023-06-07T01:02:09.555Z,957.4823
2023-06-07T01:03:11.378Z,957.4977
2023-06-07T01:04:13.135Z,957.5038
2023-06-07T01:05:14.979Z,957.5131
2023-06-07T01:06:16.806Z,957.5200
2023-06-07T01:07:18.711Z,957.5192
2023-06-07T01:08:20.476Z,957.5262
2023-06-07T01:09:22.383Z,957.5269
2023-06-07T01:10:24.173Z,957.5316
2023-06-07T01:11:26.017Z,957.5354
2023-06-07T01:12:27.848Z,957.5231
2023-06-07T01:13:29.682Z,957.5215
2023-06-07T01:14:31.532Z,957.5131
2023-06-07T01:15:33.372Z,957.5139
2023-06-07T01:16:35.252Z,957.5062
2023-06-07T01:17:37.060Z,957.4930
2023-06-07T01:18:38.871Z,957.4838
2023-06-07T01:19:40.722Z,957.4708
2023-06-07T01:20:42.570Z,957.4661
2023-06-07T01:21:44.411Z,957.4608
2023-06-07T01:22:46.271Z,957.4569
2023-06-07T01:23:48.098Z,957.4523
2023-06-07T01:24:49.910Z,957.4454
2023-06-07T01:25:51.748Z,957.4508
2023-06-07T01:26:53.613Z,957.4500
2023-06-07T01:27:55.414Z,957.4438
2023-06-07T01:28:57.242Z,957.4454
2023-06-07T01:29:59.074Z,957.4462
2023-06-07T01:31:00.925Z,957.4523
2023-06-07T01:32:02.779Z,957.4462
2023-06-07T01:33:04.752Z,957.4523
2023-06-07T01:34:06.419Z,957.4492
2023-06-07T01:35:08.256Z,957.4438
2023-06-07T01:36:10.118Z,957.4415
2023-06-07T01:37:11.951Z,957.4431
2023-06-07T01:38:13.855Z,957.4408
2023-06-07T01:39:15.649Z,957.4485
2023-06-07T01:40:17.473Z,957.4531
2023-06-07T01:41:19.300Z,957.4631
2023-06-07T01:42:21.135Z,957.4777
2023-06-07T01:43:22.981Z,957.4808
2023-06-07T01:44:24.820Z,957.4731
2023-06-07T01:45:26.644Z,957.4808
2023-06-07T01:46:28.550Z,957.4615
2023-06-07T01:47:30.302Z,957.4623
2023-06-07T01:48:32.170Z,957.4562
2023-06-07T01:49:33.990Z,957.4592
2023-06-07T01:50:35.826Z,957.4547
2023-06-07T01:51:37.681Z,957.4508
2023-06-07T01:52:39.498Z,957.4477
2023-06-07T01:53:41.364Z,957.4330
2023-06-07T01:54:43.161Z,957.4254
2023-06-07T01:55:45.019Z,957.4092
2023-06-07T01:56:46.875Z,957.4138
2023-06-07T01:57:48.694Z,957.4077
2023-06-07T01:58:50.530Z,957.4100
2023-06-07T01:59:52.357Z,957.4123
2023-06-07T02:00:54.190Z,957.4169
2023-06-07T02:01:56.124Z,957.4138
2023-06-07T02:02:57.900Z,957.4238
2023-06-07T02:03:59.762Z,957.4200
2023-06-07T02:05:01.534Z,957.4315
2023-06-07T02:06:10.956Z,957.4385
2023-06-07T02:07:05.206Z,957.4417
2023-06-07T02:08:07.060Z,957.4415
2023-06-07T02:09:08.961Z,957.4492
2023-06-07T02:10:11.109Z,957.4408
2023-06-07T02:11:12.580Z,957.4330
2023-06-07T02:12:14.405Z,957.4261
2023-06-07T02:13:16.249Z,957.4146
2023-06-07T02:14:18.144Z,957.4115
2023-06-07T02:15:19.940Z,957.4123
2023-06-07T02:16:21.777Z,957.4115
2023-06-07T02:17:23.655Z,957.4138
2023-06-07T02:18:25.494Z,957.4153
2023-06-07T02:19:27.304Z,957.4115
2023-06-07T02:20:29.119Z,957.4115
2023-06-07T02:21:30.982Z,957.4138
2023-06-07T02:22:32.803Z,957.4092
2023-06-07T02:23:34.661Z,957.3923
2023-06-07T02:24:36.562Z,957.3815
2023-06-07T02:25:38.330Z,957.3715
2023-06-07T02:26:40.148Z,957.3746
2023-06-07T02:27:41.978Z,957.3692
2023-06-07T02:28:43.819Z,957.3754
2023-06-07T02:29:45.710Z,957.3839
2023-06-07T02:30:47.512Z,957.3939
2023-06-07T02:31:49.438Z,957.3947
2023-06-07T02:32:51.340Z,957.4031
2023-06-07T02:33:53.013Z,957.4061
2023-06-07T02:34:54.908Z,957.4100
2023-06-07T02:35:56.704Z,957.4100
2023-06-07T02:36:58.544Z,957.4123
2023-06-07T02:38:00.366Z,957.4131
2023-06-07T02:39:02.240Z,957.4138
2023-06-07T02:40:04.286Z,957.4200
2023-06-07T02:41:05.883Z,957.4161
2023-06-07T02:42:07.724Z,957.4185
2023-06-07T02:43:09.577Z,957.4208
2023-06-07T02:44:11.497Z,957.4315
2023-06-07T02:45:13.272Z,957.4315
2023-06-07T02:46:15.097Z,957.4277
2023-06-07T02:47:16.925Z,957.4254
2023-06-07T02:48:18.753Z,957.4338
2023-06-07T02:49:20.606Z,957.4323
2023-06-07T02:50:22.461Z,957.4292
2023-06-07T02:51:24.288Z,957.4408
2023-06-07T02:52:26.110Z,957.4462
2023-06-07T02:53:27.941Z,957.4338
2023-06-07T02:54:29.825Z,957.4415
2023-06-07T02:55:31.642Z,957.4362
2023-06-07T02:56:33.520Z,957.4330
2023-06-07T02:57:35.302Z,957.4315
2023-06-07T02:58:37.132Z,957.4254
2023-06-07T02:59:38.973Z,957.4185
2023-06-07T03:00:40.861Z,957.4285
2023-06-07T03:01:42.662Z,957.4261
2023-06-07T03:02:44.524Z,957.4300
2023-06-07T03:03:46.387Z,957.4308
2023-06-07T03:04:48.155Z,957.4292
2023-06-07T03:05:50.042Z,957.4346
2023-06-07T03:06:51.845Z,957.4438
2023-06-07T03:07:53.705Z,957.4446
2023-06-07T03:08:55.542Z,957.4423
2023-06-07T03:09:57.383Z,957.4454
2023-06-07T03:10:59.209Z,957.4485
2023-06-07T03:12:01.106Z,957.4592
2023-06-07T03:13:02.967Z,957.4700
2023-06-07T03:14:04.782Z,957.4815
2023-06-07T03:15:06.643Z,957.4923
2023-06-07T03:16:08.489Z,957.4969
2023-06-07T03:17:10.573Z,957.5115
2023-06-07T03:18:12.191Z,957.5208
2023-06-07T03:19:13.981Z,957.5239
2023-06-07T03:20:15.811Z,957.5262
2023-06-07T03:21:17.705Z,957.5177
2023-06-07T03:22:19.495Z,957.5046
2023-06-07T03:23:21.314Z,957.5046
2023-06-07T03:24:23.172Z,957.4992
2023-06-07T03:25:25.065Z,957.4930
2023-06-07T03:26:26.919Z,957.4877
2023-06-07T03:27:28.696Z,957.4846
2023-06-07T03:28:30.514Z,957.4954
2023-06-07T03:29:32.366Z,957.5031
2023-06-07T03:30:34.247Z,957.5185
2023-06-07T03:31:36.080Z,957.5239
2023-06-07T03:32:37.907Z,957.5346
2023-06-07T03:33:39.727Z,957.5308
2023-06-07T03:34:41.564Z,957.5200
2023-06-07T03:35:43.391Z,957.5208
2023-06-07T03:36:45.268Z,957.5239
2023-06-07T03:37:47.066Z,957.5170
2023-06-07T03:38:48.902Z,957.5192
2023-06-07T03:39:50.757Z,957.5254
2023-06-07T03:40:52.600Z,957.5346
2023-06-07T03:41:54.596Z,957.5492
2023-06-07T03:42:56.279Z,957.5615
2023-06-07T03:43:58.116Z,957.5792
2023-06-07T03:44:59.938Z,957.5923
2023-06-07T03:46:01.815Z,957.5954
2023-06-07T03:47:03.636Z,957.6015
2023-06-07T03:48:05.513Z,957.6154
2023-06-07T03:49:07.334Z,957.6270
2023-06-07T03:50:09.180Z,957.6362
2023-06-07T03:51:10.986Z,957.6454
2023-06-07T03:52:12.847Z,957.6638
2023-06-07T03:53:14.650Z,957.6685
2023-06-07T03:54:16.485Z,957.6792
2023-06-07T03:55:18.339Z,957.6931
2023-06-07T03:56:20.188Z,957.6892
2023-06-07T03:57:22.050Z,957.6885
2023-06-07T03:58:23.846Z,957.6800
2023-06-07T03:59:25.703Z,957.6746
2023-06-07T04:00:27.558Z,957.6838
2023-06-07T04:01:29.379Z,957.6931
2023-06-07T04:02:31.328Z,957.7015
2023-06-07T04:03:33.123Z,957.7161
2023-06-07T04:04:35.015Z,957.7077
2023-06-07T04:05:36.732Z,957.7115
2023-06-07T04:06:38.584Z,957.7023
2023-06-07T04:07:40.429Z,957.6877
2023-06-07T04:08:42.242Z,957.6830
2023-06-07T04:09:44.085Z,957.6754
2023-06-07T04:10:45.935Z,957.6592
2023-06-07T04:11:47.780Z,957.6653
2023-06-07T04:12:49.773Z,957.6723
2023-06-07T04:13:51.461Z,957.6800
2023-06-07T04:14:53.280Z,957.6977
2023-06-07T04:15:55.129Z,957.7054
2023-06-07T04:16:57.123Z,957.7161
2023-06-07T04:17:58.920Z,957.7100
2023-06-07T04:19:02.270Z,957.7138
2023-06-07T04:20:02.472Z,957.7208
2023-06-07T04:21:04.354Z,957.7285
2023-06-07T04:22:06.176Z,957.7300
2023-06-07T04:23:08.021Z,957.7354
2023-06-07T04:24:09.936Z,957.7385
2023-06-07T04:25:11.699Z,957.7446
2023-06-07T04:26:13.534Z,957.7508
2023-06-07T04:27:15.377Z,957.7523
2023-06-07T04:28:17.262Z,957.7508
2023-06-07T04:29:19.053Z,957.7438
2023-06-07T04:30:20.882Z,957.7423
2023-06-07T04:31:22.736Z,957.7361
2023-06-07T04:32:24.624Z,957.7292
2023-06-07T04:33:26.400Z,957.7238
2023-06-07T04:34:28.233Z,957.7154
2023-06-07T04:35:30.072Z,957.7047
2023-06-07T04:36:31.928Z,957.7047
2023-06-07T04:37:33.757Z,957.6985
2023-06-07T04:38:46.300Z,957.6954
2023-06-07T04:39:39.182Z,957.7108
2023-06-07T04:40:39.741Z,957.7146
2023-06-07T04:41:41.323Z,957.7184
2023-06-07T04:42:42.951Z,957.7253
2023-06-07T04:43:44.837Z,957.7238
2023-06-07T04:44:46.614Z,957.7385
2023-06-07T04:45:48.452Z,957.7454
2023-06-07T04:46:50.290Z,957.7577
2023-06-07T04:47:52.188Z,957.7554
2023-06-07T04:48:54.002Z,957.7369
2023-06-07T04:49:55.800Z,957.7754
2023-06-07T04:50:57.635Z,957.7816
2023-06-07T04:51:59.472Z,957.7769
2023-06-07T04:53:01.320Z,957.7777
2023-06-07T04:54:03.220Z,957.7731
2023-06-07T04:55:04.975Z,957.7747
2023-06-07T04:56:06.827Z,957.7731
2023-06-07T04:57:08.663Z,957.7631
2023-06-07T04:58:10.514Z,957.7538
2023-06-07T04:59:12.348Z,957.7469
2023-06-07T05:00:14.189Z,957.7392
2023-06-07T05:01:16.008Z,957.7323
2023-06-07T05:02:17.835Z,957.7177
2023-06-07T05:03:19.683Z,957.7208
2023-06-07T05:04:21.625Z,957.7230
2023-06-07T05:05:23.440Z,957.7223
2023-06-07T05:06:25.253Z,957.7231
2023-06-07T05:07:27.023Z,957.7277
2023-06-07T05:08:28.863Z,957.7223
2023-06-07T05:09:31.064Z,957.7177
2023-06-07T05:10:32.555Z,957.7161
2023-06-07T05:11:34.405Z,957.7169
2023-06-07T05:12:36.224Z,957.7046
2023-06-07T05:13:38.058Z,957.6985
2023-06-07T05:14:39.905Z,957.6877
2023-06-07T05:15:41.765Z,957.6785
2023-06-07T05:16:44.630Z,957.6669
2023-06-07T05:17:45.447Z,957.6554
2023-06-07T05:18:47.260Z,957.6539
2023-06-07T05:19:49.093Z,957.6561
2023-06-07T05:20:50.922Z,957.6692
2023-06-07T05:21:52.763Z,957.6830
2023-06-07T05:22:54.628Z,957.6915
2023-06-07T05:23:56.451Z,957.6977
2023-06-07T05:24:58.275Z,957.6970
2023-06-07T05:26:00.093Z,957.6854
2023-06-07T05:27:01.944Z,957.6870
2023-06-07T05:28:13.187Z,957.6862
2023-06-07T05:29:08.304Z,957.6908
2023-06-07T05:30:08.896Z,957.7000
2023-06-07T05:31:12.048Z,957.7031
2023-06-07T05:32:11.964Z,957.7069
2023-06-07T05:33:13.539Z,957.7062
2023-06-07T05:34:15.110Z,957.6985
2023-06-07T05:35:16.690Z,957.6823
2023-06-07T05:36:18.451Z,957.6769
2023-06-07T05:37:20.287Z,957.6769
2023-06-07T05:38:22.115Z,957.6730
2023-06-07T05:39:23.946Z,957.6708
2023-06-07T05:40:25.813Z,957.6700
2023-06-07T05:41:27.628Z,957.6777
2023-06-07T05:42:29.453Z,957.6885
2023-06-07T05:43:31.295Z,957.7139
2023-06-07T05:44:33.132Z,957.7338
2023-06-07T05:45:35.013Z,957.7485
2023-06-07T05:46:36.830Z,957.7631
2023-06-07T05:47:38.702Z,957.7715
2023-06-07T05:48:40.476Z,957.7662
2023-06-07T05:49:42.334Z,957.7700
2023-06-07T05:50:44.158Z,957.7646
2023-06-07T05:51:45.991Z,957.7662
2023-06-07T05:52:47.832Z,957.7685
2023-06-07T05:53:49.664Z,957.7692
2023-06-07T05:54:51.494Z,957.7808
2023-06-07T05:55:53.349Z,957.7869
2023-06-07T05:56:55.161Z,957.7692
2023-06-07T05:57:57.040Z,957.7615
2023-06-07T05:58:58.857Z,957.7600
2023-06-07T06:00:00.677Z,957.7654
2023-06-07T06:01:02.556Z,957.7477
2023-06-07T06:02:04.380Z,957.7931
2023-06-07T06:03:06.226Z,957.8177
2023-06-07T06:04:08.048Z,957.8392
2023-06-07T06:05:10.048Z,957.8561
2023-06-07T06:06:11.720Z,957.8669
2023-06-07T06:07:13.552Z,957.8692
2023-06-07T06:08:15.407Z,957.8585
2023-06-07T06:09:17.274Z,957.8423
2023-06-07T06:10:19.080Z,957.8531
2023-06-07T06:11:20.935Z,957.8484
2023-06-07T06:12:22.767Z,957.8492
2023-06-07T06:13:24.607Z,957.8646
2023-06-07T06:14:26.510Z,957.8992
2023-06-07T06:15:28.273Z,957.9054
2023-06-07T06:16:30.180Z,957.9254
2023-06-07T06:17:31.993Z,957.9277
2023-06-07T06:18:33.842Z,957.9385
2023-06-07T06:19:35.640Z,957.9292
2023-06-07T06:20:37.477Z,957.9215
2023-06-07T06:21:39.315Z,957.9292
2023-06-07T06:22:41.159Z,957.9330
2023-06-07T06:23:43.025Z,957.9338
2023-06-07T06:24:44.826Z,957.9300
2023-06-07T06:25:46.652Z,957.9377
2023-06-07T06:26:48.499Z,957.9415
2023-06-07T06:27:50.399Z,957.9346
2023-06-07T06:28:52.182Z,957.9400
2023-06-07T06:29:54.009Z,957.9254
2023-06-07T06:30:55.861Z,957.9261
2023-06-07T06:31:57.685Z,957.9400
2023-06-07T06:32:59.561Z,957.9400
2023-06-07T06:34:01.343Z,957.9508
2023-06-07T06:35:03.174Z,957.9470
2023-06-07T06:36:05.004Z,957.9639
2023-06-07T06:37:06.928Z,957.9769
2023-06-07T06:38:08.840Z,957.9746
2023-06-07T06:39:10.504Z,957.9746
2023-06-07T06:40:12.341Z,957.9785
2023-06-07T06:41:14.190Z,957.9654
2023-06-07T06:42:16.035Z,957.9554
2023-06-07T06:43:17.868Z,957.9438
2023-06-07T06:44:19.687Z,957.9354
2023-06-07T06:45:21.528Z,957.9208
2023-06-07T06:46:23.459Z,957.9131
2023-06-07T06:47:25.266Z,957.9138
2023-06-07T06:48:27.019Z,957.9077
2023-06-07T06:49:28.866Z,957.9185
2023-06-07T06:50:33.347Z,957.9308
2023-06-07T06:51:32.541Z,957.9370
2023-06-07T06:52:34.386Z,957.9431
2023-06-07T06:53:36.233Z,957.9477
2023-06-07T06:54:38.065Z,957.9508
2023-06-07T06:55:39.878Z,957.9677
2023-06-07T06:56:41.734Z,957.9861
2023-06-07T06:57:43.562Z,957.9815
2023-06-07T06:58:45.404Z,957.9869
2023-06-07T06:59:50.067Z,957.9785
2023-06-07T07:00:49.215Z,957.9992
2023-06-07T07:01:50.932Z,957.9938
2023-06-07T07:02:52.976Z,957.9969
2023-06-07T07:03:54.612Z,957.9938
2023-06-07T07:04:56.402Z,957.9792
2023-06-07T07:05:58.253Z,957.9823
2023-06-07T07:07:00.080Z,957.9746
2023-06-07T07:08:01.931Z,957.9815
2023-06-07T07:09:03.743Z,957.9792
2023-06-07T07:10:05.741Z,957.9838
2023-06-07T07:11:07.418Z,957.9877
2023-06-07T07:12:09.259Z,957.9977
2023-06-07T07:13:11.118Z,958.0008
2023-06-07T07:14:12.913Z,958.0092
2023-06-07T07:15:14.786Z,958.0200
2023-06-07T07:16:16.762Z,958.0115
2023-06-07T07:17:18.500Z,958.0077
2023-06-07T07:18:20.346Z,958.0170
2023-06-07T07:19:22.174Z,958.0192
2023-06-07T07:20:24.008Z,958.0192
2023-06-07T07:21:25.863Z,958.0162
2023-06-07T07:22:29.109Z,958.0131
2023-06-07T07:23:29.568Z,958.0108
2023-06-07T07:24:31.361Z,958.0077
2023-06-07T07:25:33.202Z,958.0008
2023-06-07T07:26:35.051Z,957.9938
2023-06-07T07:27:36.907Z,957.9908
2023-06-07T07:28:38.760Z,957.9815
2023-06-07T07:29:40.553Z,957.9785
2023-06-07T07:30:42.393Z,957.9708
2023-06-07T07:31:44.225Z,957.9746
2023-06-07T07:32:46.145Z,957.9915
2023-06-07T07:33:48.182Z,957.9923
2023-06-07T07:34:49.810Z,957.9923
2023-06-07T07:35:51.584Z,957.9746
2023-06-07T07:36:53.409Z,957.9753
2023-06-07T07:37:55.258Z,957.9761
2023-06-07T07:38:57.118Z,957.9692
2023-06-07T07:39:58.941Z,957.9547
2023-06-07T07:41:00.772Z,957.9539
2023-06-07T07:42:03.579Z,957.9285
2023-06-07T07:43:04.474Z,957.9077
2023-06-07T07:44:06.320Z,957.8992
2023-06-07T07:45:08.140Z,957.9023
2023-06-07T07:46:10.014Z,957.8992
2023-06-07T07:47:11.812Z,957.8939
2023-06-07T07:48:13.696Z,957.8846
2023-06-07T07:49:15.567Z,957.8915
2023-06-07T07:50:17.331Z,957.9023
2023-06-07T07:51:19.149Z,957.9061
2023-06-07T07:52:22.649Z,957.8992
2023-06-07T07:53:22.842Z,957.8931
2023-06-07T07:54:24.697Z,957.9100
2023-06-07T07:55:26.518Z,957.8839
2023-06-07T07:56:28.357Z,957.8462
2023-06-07T07:57:30.181Z,957.8685
2023-06-07T07:58:32.040Z,957.8915
2023-06-07T07:59:34.112Z,957.8877
2023-06-07T08:00:35.715Z,957.8915
2023-06-07T08:01:37.572Z,957.8792
2023-06-07T08:02:39.506Z,957.8931
2023-06-07T08:03:41.347Z,957.9000
2023-06-07T08:04:43.227Z,957.9092
2023-06-07T08:05:44.915Z,957.9077
2023-06-07T08:06:46.751Z,957.9069
2023-06-07T08:07:48.585Z,957.9146
2023-06-07T08:08:50.407Z,957.9215
2023-06-07T08:09:52.266Z,957.9300
2023-06-07T08:10:54.105Z,957.9370
2023-06-07T08:11:55.929Z,957.9523
2023-06-07T08:12:57.763Z,957.9569
2023-06-07T08:13:59.604Z,957.9761
2023-06-07T08:15:01.459Z,957.9792
2023-06-07T08:16:03.320Z,957.9723
2023-06-07T08:17:05.119Z,957.9615
2023-06-07T08:18:06.956Z,957.9492
2023-06-07T08:19:08.827Z,957.9192
2023-06-07T08:20:10.647Z,957.9146
2023-06-07T08:21:12.453Z,957.9084
2023-06-07T08:22:14.302Z,957.9016
2023-06-07T08:23:16.142Z,957.8923
2023-06-07T08:24:17.963Z,957.8908
2023-06-07T08:25:19.835Z,957.9039
2023-06-07T08:26:21.635Z,957.8977
2023-06-07T08:27:23.467Z,957.8962
2023-06-07T08:28:25.290Z,957.9016
2023-06-07T08:29:27.125Z,957.8877
2023-06-07T08:30:29.002Z,957.8969
2023-06-07T08:31:30.841Z,957.8939
2023-06-07T08:32:32.749Z,957.8862
2023-06-07T08:33:34.478Z,957.8692
2023-06-07T08:34:36.318Z,957.8585
2023-06-07T08:35:38.153Z,957.8577
2023-06-07T08:36:39.990Z,957.8723
2023-06-07T08:37:41.809Z,957.8746
2023-06-07T08:38:43.661Z,957.8738
2023-06-07T08:39:45.485Z,957.8738
2023-06-07T08:40:47.339Z,957.8823
2023-06-07T08:41:49.157Z,957.8569
2023-06-07T08:42:51.009Z,957.8377
2023-06-07T08:43:52.807Z,957.8215
2023-06-07T08:44:54.653Z,957.8308
2023-06-07T08:45:56.618Z,957.8130
2023-06-07T08:46:58.307Z,957.8038
2023-06-07T08:48:00.240Z,957.8054
2023-06-07T08:49:01.984Z,957.8162
2023-06-07T08:50:04.259Z,957.8208
2023-06-07T08:51:05.671Z,957.8323
2023-06-07T08:53:10.309Z,957.8416
2023-06-07T08:54:11.158Z,957.8531
2023-06-07T08:55:13.197Z,957.8454
2023-06-07T08:56:17.889Z,957.8500
2023-06-07T08:57:16.677Z,957.8400
2023-06-07T08:58:18.492Z,957.8347
2023-06-07T08:59:20.316Z,957.8347
2023-06-07T09:00:22.152Z,957.8362
2023-06-07T09:01:24.100Z,957.8331
2023-06-07T09:02:25.978Z,957.8254
2023-06-07T09:03:27.762Z,957.8192
2023-06-07T09:04:29.541Z,957.8392
2023-06-07T09:05:31.644Z,957.8385
2023-06-07T09:06:33.262Z,957.8461
2023-06-07T09:07:35.040Z,957.8454
2023-06-07T09:08:36.870Z,957.8531
2023-06-07T09:09:38.697Z,957.8508
2023-06-07T09:10:40.541Z,957.8385
2023-06-07T09:11:42.404Z,957.8431
2023-06-07T09:12:44.243Z,957.8400
2023-06-07T09:13:46.077Z,957.8416
2023-06-07T09:14:47.893Z,957.8185
2023-06-07T09:15:49.724Z,957.8215
2023-06-07T09:16:51.772Z,957.8223
2023-06-07T09:17:53.688Z,957.8377
2023-06-07T09:18:55.359Z,957.8177
2023-06-07T09:19:57.088Z,957.8270
2023-06-07T09:20:58.937Z,957.8123
2023-06-07T09:22:00.949Z,957.8123
2023-06-07T09:23:02.612Z,957.8046
2023-06-07T09:24:04.461Z,957.7908
2023-06-07T09:25:06.608Z,957.7915
2023-06-07T09:26:08.120Z,957.7969
2023-06-07T09:27:09.977Z,957.7969
2023-06-07T09:28:11.789Z,957.7985
2023-06-07T09:29:13.623Z,957.8008
2023-06-07T09:30:15.470Z,957.7562
2023-06-07T09:31:17.337Z,957.7361
2023-06-07T09:32:19.187Z,957.7477
2023-06-07T09:33:21.041Z,957.7739
2023-06-07T09:34:22.799Z,957.7877
2023-06-07T09:35:24.649Z,957.7953
2023-06-07T09:36:26.522Z,957.8062
2023-06-07T09:37:28.462Z,957.7915
2023-06-07T09:38:30.155Z,957.7938
2023-06-07T09:39:32.006Z,957.7923
2023-06-07T09:40:33.829Z,957.8077
2023-06-07T09:41:35.654Z,957.7946
2023-06-07T09:42:37.508Z,957.8008
2023-06-07T09:43:39.348Z,957.8054
2023-06-07T09:44:41.173Z,957.8108
2023-06-07T09:45:43.039Z,957.8130
2023-06-07T09:46:44.860Z,957.7992
2023-06-07T09:47:46.694Z,957.8077
2023-06-07T09:48:48.777Z,957.8108
2023-06-07T09:49:50.389Z,957.8046
2023-06-07T09:50:52.203Z,957.8046
2023-06-07T09:51:54.102Z,957.8162
2023-06-07T09:52:55.920Z,957.7977
2023-06-07T09:53:57.752Z,957.7854
2023-06-07T09:54:59.545Z,957.7631
2023-06-07T09:56:01.466Z,957.7554
2023-06-07T09:57:03.221Z,957.7269
2023-06-07T09:58:05.048Z,957.7131
2023-06-07T09:59:06.902Z,957.7069
2023-06-07T10:00:09.128Z,957.7015
2023-06-07T10:01:10.581Z,957.7115
2023-06-07T10:02:12.395Z,957.6970
2023-06-07T10:03:14.368Z,957.6700
2023-06-07T10:04:16.115Z,957.6708
2023-06-07T10:05:17.897Z,957.6454
2023-06-07T10:06:19.733Z,957.6292
2023-06-07T10:07:21.572Z,957.6230
2023-06-07T10:08:23.455Z,957.6230
2023-06-07T10:09:25.268Z,957.6285
2023-06-07T10:10:27.104Z,957.6161
2023-06-07T10:11:28.896Z,957.6285
2023-06-07T10:12:30.758Z,957.6423
2023-06-07T10:13:32.644Z,957.6339
2023-06-07T10:14:34.563Z,957.6123
2023-06-07T10:15:36.254Z,957.5770
2023-06-07T10:16:38.139Z,957.6031
2023-06-07T10:17:39.949Z,957.6246
2023-06-07T10:18:41.783Z,957.6285
2023-06-07T10:19:43.612Z,957.6046
2023-06-07T10:20:45.510Z,957.5723
2023-06-07T10:21:47.330Z,957.5631
2023-06-07T10:22:49.143Z,957.6138
2023-06-07T10:23:51.096Z,957.5908
2023-06-07T10:24:52.867Z,957.5530
2023-06-07T10:25:54.623Z,957.5785
2023-06-07T10:26:56.477Z,957.5908
2023-06-07T10:27:58.302Z,957.5800
2023-06-07T10:29:00.159Z,957.6008
2023-06-07T10:30:02.012Z,957.6215
2023-06-07T10:31:03.816Z,957.5977
2023-06-07T10:32:05.703Z,957.5939
2023-06-07T10:33:07.540Z,957.6130
2023-06-07T10:34:09.390Z,957.5839
2023-06-07T10:35:13.614Z,957.5877
2023-06-07T10:36:13.061Z,957.5831
2023-06-07T10:37:14.908Z,957.5538
2023-06-07T10:38:16.698Z,957.5354
2023-06-07T10:39:18.566Z,957.5185
2023-06-07T10:40:20.406Z,957.4992
2023-06-07T10:41:22.223Z,957.5023
2023-06-07T10:42:24.047Z,957.4923
2023-06-07T10:43:25.879Z,957.5015
2023-06-07T10:44:27.798Z,957.5123
2023-06-07T10:45:29.570Z,957.4946
2023-06-07T10:46:31.425Z,957.4554
2023-06-07T10:47:33.287Z,957.4577
2023-06-07T10:48:35.134Z,957.4892
2023-06-07T10:49:36.973Z,957.4992
2023-06-07T10:50:38.801Z,957.4700
2023-06-07T10:51:40.666Z,957.4546
2023-06-07T10:52:42.461Z,957.4454
2023-06-07T10:53:44.347Z,957.4492
2023-06-07T10:54:46.143Z,957.4615
2023-06-07T10:55:47.986Z,957.4523
2023-06-07T10:56:49.819Z,957.4761
2023-06-07T10:57:51.664Z,957.4669
2023-06-07T10:58:53.488Z,957.4562
2023-06-07T10:59:55.334Z,957.4585
2023-06-07T11:00:57.226Z,957.4539
2023-06-07T11:01:59.076Z,957.4438
2023-06-07T11:03:00.949Z,957.4438
2023-06-07T11:04:02.960Z,957.4269
2023-06-07T11:05:04.893Z,957.4008
2023-06-07T11:06:06.796Z,957.4061
2023-06-07T11:07:08.195Z,957.4153
2023-06-07T11:08:10.039Z,957.4023
2023-06-07T11:09:11.870Z,957.3815
2023-06-07T11:10:13.844Z,957.3569
2023-06-07T11:11:15.575Z,957.3339
2023-06-07T11:12:17.419Z,957.3423
2023-06-07T11:13:19.253Z,957.3362
2023-06-07T11:14:21.087Z,957.3416
2023-06-07T11:15:23.091Z,957.3285
2023-06-07T11:16:24.823Z,957.3046
2023-06-07T11:17:26.660Z,957.2938
2023-06-07T11:18:28.579Z,957.2785
2023-06-07T11:19:30.424Z,957.2977
2023-06-07T11:20:32.205Z,957.2746
2023-06-07T11:21:34.031Z,957.2969
2023-06-07T11:22:35.900Z,957.3046
2023-06-07T11:23:37.771Z,957.2685
2023-06-07T11:24:39.631Z,957.2515
2023-06-07T11:25:41.548Z,957.2285
2023-06-07T11:26:43.238Z,957.2085
2023-06-07T11:27:45.083Z,957.2108
2023-06-07T11:28:46.991Z,957.2108
2023-06-07T11:29:48.741Z,957.2192
2023-06-07T11:30:50.597Z,957.1900
2023-06-07T11:31:52.465Z,957.1715
2023-06-07T11:32:54.301Z,957.1323
2023-06-07T11:33:56.123Z,957.0884
2023-06-07T11:34:58.013Z,957.0685
2023-06-07T11:35:59.786Z,957.0800
2023-06-07T11:37:01.625Z,957.0800
2023-06-07T11:38:03.469Z,957.0670
2023-06-07T11:39:05.311Z,957.0423
2023-06-07T11:40:07.410Z,957.0231
2023-06-07T11:41:08.996Z,957.0008
2023-06-07T11:42:10.849Z,956.9954
2023-06-07T11:43:12.671Z,956.9792
2023-06-07T11:44:14.504Z,956.9869
2023-06-07T11:45:16.350Z,956.9723
2023-06-07T11:46:18.180Z,956.9854
2023-06-07T11:47:20.062Z,956.9738
2023-06-07T11:48:21.945Z,956.9892
2023-06-07T11:49:23.701Z,956.9969
2023-06-07T11:50:25.521Z,956.9885
2023-06-07T11:51:27.590Z,956.9700
2023-06-07T11:52:29.196Z,956.9684
2023-06-07T11:53:31.041Z,956.9854
2023-06-07T11:54:32.889Z,956.9677
2023-06-07T11:55:34.720Z,956.9385
2023-06-07T11:56:36.592Z,956.9169
2023-06-07T11:57:38.427Z,956.8984
2023-06-07T11:58:40.248Z,956.8900
2023-06-07T11:59:42.204Z,956.8831
2023-06-07T12:00:43.949Z,956.8669
2023-06-07T12:01:45.777Z,956.8608
2023-06-07T12:02:47.628Z,956.8538
2023-06-07T12:03:49.534Z,956.8377
2023-06-07T12:04:51.318Z,956.8231
2023-06-07T12:05:53.093Z,956.8323
2023-06-07T12:06:54.946Z,956.8469